sensor_id;sensor_type;location;lat;lon;timestamp;temperature;humidity
34406;DHT22;20658;45.630;8.886;2024-02-14T00:02:32;6.40;99.90
34406;DHT22;20658;45.630;8.886;2024-02-14T00:05:09;6.40;99.90
34406;DHT22;20658;45.630;8.886;2024-02-14T00:07:43;6.40;99.90
34406;DHT22;20658;45.630;8.886;2024-02-14T00:10:11;6.40;99.90
34406;DHT22;20658;45.630;8.886;2024-02-14T00:12:45;6.30;99.90
34406;DHT22;20658;45.630;8.886;2024-02-14T00:15:20;6.30;99.90
34406;DHT22;20658;45.630;8.886;2024-02-14T00:17:53;6.30;99.90
34406;DHT22;20658;45.630;8.886;2024-02-14T00:20:28;6.30;99.90
34406;DHT22;20658;45.630;8.886;2024-02-14T00:23:01;6.30;99.90
34406;DHT22;20658;45.630;8.886;2024-02-14T00:25:35;6.20;99.90
34406;DHT22;20658;45.630;8.886;2024-02-14T00:28:08;6.20;99.90
34406;DHT22;20658;45.630;8.886;2024-02-14T00:30:41;6.20;99.90
34406;DHT22;20658;45.630;8.886;2024-02-14T00:33:15;6.20;99.90
34406;DHT22;20658;45.630;8.886;2024-02-14T00:35:50;6.10;99.90
34406;DHT22;20658;45.630;8.886;2024-02-14T00:38:23;6.20;99.90
34406;DHT22;20658;45.630;8.886;2024-02-14T00:40:57;6.10;99.90
34406;DHT22;20658;45.630;8.886;2024-02-14T00:43:30;6.10;99.90
34406;DHT22;20658;45.630;8.886;2024-02-14T00:46:04;6.10;99.90
34406;DHT22;20658;45.630;8.886;2024-02-14T00:48:37;6.10;99.90
34406;DHT22;20658;45.630;8.886;2024-02-14T00:51:12;6.10;99.90
34406;DHT22;20658;45.630;8.886;2024-02-14T00:53:46;6.10;99.90
34406;DHT22;20658;45.630;8.886;2024-02-14T00:56:20;6.10;99.90
34406;DHT22;20658;45.630;8.886;2024-02-14T00:58:55;6.10;99.90
34406;DHT22;20658;45.630;8.886;2024-02-14T01:01:29;6.10;99.90
34406;DHT22;20658;45.630;8.886;2024-02-14T01:04:02;6.10;99.90
34406;DHT22;20658;45.630;8.886;2024-02-14T01:06:38;6.10;99.90
34406;DHT22;20658;45.630;8.886;2024-02-14T01:09:11;6.10;99.90
34406;DHT22;20658;45.630;8.886;2024-02-14T01:11:45;6.10;99.90
34406;DHT22;20658;45.630;8.886;2024-02-14T01:14:18;6.10;99.90
34406;DHT22;20658;45.630;8.886;2024-02-14T01:16:53;6.10;99.90
34406;DHT22;20658;45.630;8.886;2024-02-14T01:19:28;6.00;99.90
34406;DHT22;20658;45.630;8.886;2024-02-14T01:22:03;6.00;99.90
34406;DHT22;20658;45.630;8.886;2024-02-14T01:24:37;6.00;99.90
34406;DHT22;20658;45.630;8.886;2024-02-14T01:27:11;6.00;99.90
34406;DHT22;20658;45.630;8.886;2024-02-14T01:29:44;6.00;99.90
34406;DHT22;20658;45.630;8.886;2024-02-14T01:32:18;6.00;99.90
34406;DHT22;20658;45.630;8.886;2024-02-14T01:34:51;5.90;99.90
34406;DHT22;20658;45.630;8.886;2024-02-14T01:37:26;5.90;99.90
34406;DHT22;20658;45.630;8.886;2024-02-14T01:39:56;5.90;99.90
34406;DHT22;20658;45.630;8.886;2024-02-14T01:42:29;5.90;99.90
34406;DHT22;20658;45.630;8.886;2024-02-14T01:45:03;5.90;99.90
34406;DHT22;20658;45.630;8.886;2024-02-14T01:47:37;5.90;99.90
34406;DHT22;20658;45.630;8.886;2024-02-14T01:50:11;5.80;99.90
34406;DHT22;20658;45.630;8.886;2024-02-14T01:52:46;5.80;99.90
34406;DHT22;20658;45.630;8.886;2024-02-14T01:55:21;5.90;99.90
34406;DHT22;20658;45.630;8.886;2024-02-14T01:57:55;5.80;99.90
34406;DHT22;20658;45.630;8.886;2024-02-14T02:00:28;5.80;99.90
34406;DHT22;20658;45.630;8.886;2024-02-14T02:03:08;5.80;99.90
34406;DHT22;20658;45.630;8.886;2024-02-14T02:05:42;5.80;99.90
34406;DHT22;20658;45.630;8.886;2024-02-14T02:08:17;5.70;99.90
34406;DHT22;20658;45.630;8.886;2024-02-14T02:10:51;5.70;99.90
34406;DHT22;20658;45.630;8.886;2024-02-14T02:13:24;5.80;99.90
34406;DHT22;20658;45.630;8.886;2024-02-14T02:15:58;5.70;99.90
34406;DHT22;20658;45.630;8.886;2024-02-14T02:18:33;5.70;99.90
34406;DHT22;20658;45.630;8.886;2024-02-14T02:21:06;5.70;99.90
34406;DHT22;20658;45.630;8.886;2024-02-14T02:23:41;5.60;99.90
34406;DHT22;20658;45.630;8.886;2024-02-14T02:26:17;5.60;99.90
34406;DHT22;20658;45.630;8.886;2024-02-14T02:28:45;5.60;99.90
34406;DHT22;20658;45.630;8.886;2024-02-14T02:31:19;5.60;99.90
34406;DHT22;20658;45.630;8.886;2024-02-14T02:33:48;5.60;99.90
34406;DHT22;20658;45.630;8.886;2024-02-14T02:36:23;5.60;99.90
34406;DHT22;20658;45.630;8.886;2024-02-14T02:38:58;5.50;99.90
34406;DHT22;20658;45.630;8.886;2024-02-14T02:41:32;5.50;99.90
34406;DHT22;20658;45.630;8.886;2024-02-14T02:44:05;5.50;99.90
34406;DHT22;20658;45.630;8.886;2024-02-14T02:46:39;5.40;99.90
34406;DHT22;20658;45.630;8.886;2024-02-14T02:49:12;5.40;99.90
34406;DHT22;20658;45.630;8.886;2024-02-14T02:51:46;5.40;99.90
34406;DHT22;20658;45.630;8.886;2024-02-14T02:54:22;5.30;99.90
34406;DHT22;20658;45.630;8.886;2024-02-14T02:56:55;5.40;99.90
34406;DHT22;20658;45.630;8.886;2024-02-14T02:59:30;5.30;99.90
34406;DHT22;20658;45.630;8.886;2024-02-14T03:02:04;5.20;99.90
34406;DHT22;20658;45.630;8.886;2024-02-14T03:04:40;5.40;99.90
34406;DHT22;20658;45.630;8.886;2024-02-14T03:07:13;5.20;99.90
34406;DHT22;20658;45.630;8.886;2024-02-14T03:09:48;5.20;99.90
34406;DHT22;20658;45.630;8.886;2024-02-14T03:12:22;5.10;99.90
34406;DHT22;20658;45.630;8.886;2024-02-14T03:14:55;5.10;99.90
34406;DHT22;20658;45.630;8.886;2024-02-14T03:17:29;5.10;99.90
34406;DHT22;20658;45.630;8.886;2024-02-14T03:20:04;5.30;99.90
34406;DHT22;20658;45.630;8.886;2024-02-14T03:22:42;5.10;99.90
34406;DHT22;20658;45.630;8.886;2024-02-14T03:25:18;5.00;99.90
34406;DHT22;20658;45.630;8.886;2024-02-14T03:27:52;5.00;99.90
34406;DHT22;20658;45.630;8.886;2024-02-14T03:30:26;5.00;99.90
34406;DHT22;20658;45.630;8.886;2024-02-14T03:33:01;5.00;99.90
34406;DHT22;20658;45.630;8.886;2024-02-14T03:35:35;4.90;99.90
34406;DHT22;20658;45.630;8.886;2024-02-14T03:38:09;4.90;99.90
34406;DHT22;20658;45.630;8.886;2024-02-14T03:40:44;4.90;99.90
34406;DHT22;20658;45.630;8.886;2024-02-14T03:43:17;4.90;99.90
34406;DHT22;20658;45.630;8.886;2024-02-14T03:45:51;4.80;99.90
34406;DHT22;20658;45.630;8.886;2024-02-14T03:48:26;5.00;99.90
34406;DHT22;20658;45.630;8.886;2024-02-14T03:51:00;4.80;99.90
34406;DHT22;20658;45.630;8.886;2024-02-14T03:53:35;4.80;99.90
34406;DHT22;20658;45.630;8.886;2024-02-14T03:56:10;4.80;99.90
34406;DHT22;20658;45.630;8.886;2024-02-14T03:58:46;4.80;99.90
34406;DHT22;20658;45.630;8.886;2024-02-14T04:01:19;4.70;99.90
34406;DHT22;20658;45.630;8.886;2024-02-14T04:03:53;4.80;99.90
34406;DHT22;20658;45.630;8.886;2024-02-14T04:06:26;4.70;99.90
34406;DHT22;20658;45.630;8.886;2024-02-14T04:09:03;4.70;99.90
34406;DHT22;20658;45.630;8.886;2024-02-14T04:11:38;4.70;99.90
34406;DHT22;20658;45.630;8.886;2024-02-14T04:14:12;4.60;99.90
34406;DHT22;20658;45.630;8.886;2024-02-14T04:16:46;4.60;99.90
34406;DHT22;20658;45.630;8.886;2024-02-14T04:19:19;4.60;99.90
34406;DHT22;20658;45.630;8.886;2024-02-14T04:21:53;4.60;99.90
34406;DHT22;20658;45.630;8.886;2024-02-14T04:24:26;4.60;99.90
34406;DHT22;20658;45.630;8.886;2024-02-14T04:27:01;4.50;99.90
34406;DHT22;20658;45.630;8.886;2024-02-14T04:29:36;4.50;99.90
34406;DHT22;20658;45.630;8.886;2024-02-14T04:32:04;4.50;99.90
34406;DHT22;20658;45.630;8.886;2024-02-14T04:34:38;4.40;99.90
34406;DHT22;20658;45.630;8.886;2024-02-14T04:37:11;4.40;99.90
34406;DHT22;20658;45.630;8.886;2024-02-14T04:39:45;4.40;99.90
34406;DHT22;20658;45.630;8.886;2024-02-14T04:42:20;4.60;99.90
34406;DHT22;20658;45.630;8.886;2024-02-14T04:44:53;4.70;99.90
34406;DHT22;20658;45.630;8.886;2024-02-14T04:47:27;4.30;99.90
34406;DHT22;20658;45.630;8.886;2024-02-14T04:50:01;4.30;99.90
34406;DHT22;20658;45.630;8.886;2024-02-14T04:52:36;4.30;99.90
34406;DHT22;20658;45.630;8.886;2024-02-14T04:55:10;4.30;99.90
34406;DHT22;20658;45.630;8.886;2024-02-14T04:57:45;4.30;99.90
34406;DHT22;20658;45.630;8.886;2024-02-14T05:00:19;4.30;99.90
34406;DHT22;20658;45.630;8.886;2024-02-14T05:02:52;4.20;99.90
34406;DHT22;20658;45.630;8.886;2024-02-14T05:05:26;4.20;99.90
34406;DHT22;20658;45.630;8.886;2024-02-14T05:07:59;4.20;99.90
34406;DHT22;20658;45.630;8.886;2024-02-14T05:10:34;4.40;99.90
34406;DHT22;20658;45.630;8.886;2024-02-14T05:13:09;4.20;99.90
34406;DHT22;20658;45.630;8.886;2024-02-14T05:15:42;4.20;99.90
34406;DHT22;20658;45.630;8.886;2024-02-14T05:18:15;4.10;99.90
34406;DHT22;20658;45.630;8.886;2024-02-14T05:20:49;4.10;99.90
34406;DHT22;20658;45.630;8.886;2024-02-14T05:23:22;4.10;99.90
34406;DHT22;20658;45.630;8.886;2024-02-14T05:25:56;4.60;99.90
34406;DHT22;20658;45.630;8.886;2024-02-14T05:28:31;4.10;99.90
34406;DHT22;20658;45.630;8.886;2024-02-14T05:31:05;4.10;99.90
34406;DHT22;20658;45.630;8.886;2024-02-14T05:33:40;4.10;99.90
34406;DHT22;20658;45.630;8.886;2024-02-14T05:36:08;4.10;99.90
34406;DHT22;20658;45.630;8.886;2024-02-14T05:38:42;4.00;99.90
34406;DHT22;20658;45.630;8.886;2024-02-14T05:41:15;4.10;99.90
34406;DHT22;20658;45.630;8.886;2024-02-14T05:43:51;4.20;99.90
34406;DHT22;20658;45.630;8.886;2024-02-14T05:46:24;4.00;99.90
34406;DHT22;20658;45.630;8.886;2024-02-14T05:48:58;4.00;99.90
34406;DHT22;20658;45.630;8.886;2024-02-14T05:51:26;3.90;99.90
34406;DHT22;20658;45.630;8.886;2024-02-14T05:54:00;3.90;99.90
34406;DHT22;20658;45.630;8.886;2024-02-14T05:56:34;4.10;99.90
34406;DHT22;20658;45.630;8.886;2024-02-14T05:59:09;4.00;99.90
34406;DHT22;20658;45.630;8.886;2024-02-14T06:01:43;3.90;99.90
34406;DHT22;20658;45.630;8.886;2024-02-14T06:04:16;3.80;99.90
34406;DHT22;20658;45.630;8.886;2024-02-14T06:06:50;3.90;99.90
34406;DHT22;20658;45.630;8.886;2024-02-14T06:09:23;3.90;99.90
34406;DHT22;20658;45.630;8.886;2024-02-14T06:11:57;3.90;99.90
34406;DHT22;20658;45.630;8.886;2024-02-14T06:14:31;3.80;99.90
34406;DHT22;20658;45.630;8.886;2024-02-14T06:17:07;3.80;99.90
34406;DHT22;20658;45.630;8.886;2024-02-14T06:19:40;4.00;99.90
34406;DHT22;20658;45.630;8.886;2024-02-14T06:22:13;3.80;99.90
34406;DHT22;20658;45.630;8.886;2024-02-14T06:24:47;3.70;99.90
34406;DHT22;20658;45.630;8.886;2024-02-14T06:27:21;4.40;99.90
34406;DHT22;20658;45.630;8.886;2024-02-14T06:29:56;3.80;99.90
34406;DHT22;20658;45.630;8.886;2024-02-14T06:32:31;3.80;99.90
34406;DHT22;20658;45.630;8.886;2024-02-14T06:35:05;3.80;99.90
34406;DHT22;20658;45.630;8.886;2024-02-14T06:37:39;3.80;99.90
34406;DHT22;20658;45.630;8.886;2024-02-14T06:40:13;3.80;99.90
34406;DHT22;20658;45.630;8.886;2024-02-14T06:42:46;3.80;99.90
34406;DHT22;20658;45.630;8.886;2024-02-14T06:45:23;3.80;99.90
34406;DHT22;20658;45.630;8.886;2024-02-14T06:47:57;3.80;99.90
34406;DHT22;20658;45.630;8.886;2024-02-14T06:50:30;3.80;99.90
34406;DHT22;20658;45.630;8.886;2024-02-14T06:53:04;3.80;99.90
34406;DHT22;20658;45.630;8.886;2024-02-14T06:55:37;3.80;99.90
34406;DHT22;20658;45.630;8.886;2024-02-14T06:58:11;3.90;99.90
34406;DHT22;20658;45.630;8.886;2024-02-14T07:00:46;3.90;99.90
34406;DHT22;20658;45.630;8.886;2024-02-14T07:03:19;3.90;99.90
34406;DHT22;20658;45.630;8.886;2024-02-14T07:05:52;3.90;99.90
34406;DHT22;20658;45.630;8.886;2024-02-14T07:08:26;4.00;99.90
34406;DHT22;20658;45.630;8.886;2024-02-14T07:11:00;4.60;99.90
34406;DHT22;20658;45.630;8.886;2024-02-14T07:13:33;4.10;99.90
34406;DHT22;20658;45.630;8.886;2024-02-14T07:16:08;4.20;99.90
34406;DHT22;20658;45.630;8.886;2024-02-14T07:18:41;4.20;99.90
34406;DHT22;20658;45.630;8.886;2024-02-14T07:21:15;4.30;99.90
34406;DHT22;20658;45.630;8.886;2024-02-14T07:23:48;4.30;99.90
34406;DHT22;20658;45.630;8.886;2024-02-14T07:26:22;4.40;99.90
34406;DHT22;20658;45.630;8.886;2024-02-14T07:28:55;4.50;99.90
34406;DHT22;20658;45.630;8.886;2024-02-14T07:31:30;4.60;99.90
34406;DHT22;20658;45.630;8.886;2024-02-14T07:34:05;4.70;99.90
34406;DHT22;20658;45.630;8.886;2024-02-14T07:36:38;4.70;99.90
34406;DHT22;20658;45.630;8.886;2024-02-14T07:39:13;4.80;99.90
34406;DHT22;20658;45.630;8.886;2024-02-14T07:41:46;4.90;99.90
34406;DHT22;20658;45.630;8.886;2024-02-14T07:44:20;5.00;99.90
34406;DHT22;20658;45.630;8.886;2024-02-14T07:46:54;5.10;99.90
34406;DHT22;20658;45.630;8.886;2024-02-14T07:49:28;5.20;99.90
34406;DHT22;20658;45.630;8.886;2024-02-14T07:52:01;5.60;99.90
34406;DHT22;20658;45.630;8.886;2024-02-14T07:54:35;5.40;99.90
34406;DHT22;20658;45.630;8.886;2024-02-14T07:57:09;5.50;99.90
34406;DHT22;20658;45.630;8.886;2024-02-14T07:59:42;5.60;99.90
34406;DHT22;20658;45.630;8.886;2024-02-14T08:02:17;5.70;99.90
34406;DHT22;20658;45.630;8.886;2024-02-14T08:04:50;5.80;99.90
34406;DHT22;20658;45.630;8.886;2024-02-14T08:07:24;5.90;99.90
34406;DHT22;20658;45.630;8.886;2024-02-14T08:09:57;6.10;99.90
34406;DHT22;20658;45.630;8.886;2024-02-14T08:12:31;6.20;99.90
34406;DHT22;20658;45.630;8.886;2024-02-14T08:15:05;6.30;99.90
34406;DHT22;20658;45.630;8.886;2024-02-14T08:17:41;6.40;99.90
34406;DHT22;20658;45.630;8.886;2024-02-14T08:20:14;6.60;99.00
34406;DHT22;20658;45.630;8.886;2024-02-14T08:22:50;6.80;98.50
34406;DHT22;20658;45.630;8.886;2024-02-14T08:25:24;6.90;97.30
34406;DHT22;20658;45.630;8.886;2024-02-14T08:27:58;7.00;96.80
34406;DHT22;20658;45.630;8.886;2024-02-14T08:30:31;7.10;96.70
34406;DHT22;20658;45.630;8.886;2024-02-14T08:33:06;7.20;96.10
34406;DHT22;20658;45.630;8.886;2024-02-14T08:35:40;7.20;95.40
34406;DHT22;20658;45.630;8.886;2024-02-14T08:38:13;7.40;96.20
34406;DHT22;20658;45.630;8.886;2024-02-14T08:40:47;7.60;95.10
34406;DHT22;20658;45.630;8.886;2024-02-14T08:43:20;7.70;94.00
34406;DHT22;20658;45.630;8.886;2024-02-14T08:45:54;7.80;93.00
34406;DHT22;20658;45.630;8.886;2024-02-14T08:48:29;7.90;92.50
34406;DHT22;20658;45.630;8.886;2024-02-14T08:51:06;8.10;92.00
34406;DHT22;20658;45.630;8.886;2024-02-14T08:53:41;8.30;89.10
34406;DHT22;20658;45.630;8.886;2024-02-14T08:56:15;8.50;88.60
34406;DHT22;20658;45.630;8.886;2024-02-14T08:58:48;8.60;88.00
34406;DHT22;20658;45.630;8.886;2024-02-14T09:01:22;8.90;86.90
34406;DHT22;20658;45.630;8.886;2024-02-14T09:03:57;9.00;86.30
34406;DHT22;20658;45.630;8.886;2024-02-14T09:06:31;9.10;85.00
34406;DHT22;20658;45.630;8.886;2024-02-14T09:09:00;9.20;85.80
34406;DHT22;20658;45.630;8.886;2024-02-14T09:11:33;9.30;85.40
34406;DHT22;20658;45.630;8.886;2024-02-14T09:14:07;9.40;85.10
34406;DHT22;20658;45.630;8.886;2024-02-14T09:16:42;9.50;84.50
34406;DHT22;20658;45.630;8.886;2024-02-14T09:19:19;9.60;83.70
34406;DHT22;20658;45.630;8.886;2024-02-14T09:21:53;9.70;84.10
34406;DHT22;20658;45.630;8.886;2024-02-14T09:24:27;9.90;83.30
34406;DHT22;20658;45.630;8.886;2024-02-14T09:27:00;10.00;81.50
34406;DHT22;20658;45.630;8.886;2024-02-14T09:29:34;10.00;80.80
34406;DHT22;20658;45.630;8.886;2024-02-14T09:32:10;10.10;80.90
34406;DHT22;20658;45.630;8.886;2024-02-14T09:34:45;10.40;81.00
34406;DHT22;20658;45.630;8.886;2024-02-14T09:37:19;10.50;80.00
34406;DHT22;20658;45.630;8.886;2024-02-14T09:39:52;10.60;78.20
34406;DHT22;20658;45.630;8.886;2024-02-14T09:42:30;10.70;77.70
34406;DHT22;20658;45.630;8.886;2024-02-14T09:45:04;10.90;76.90
34406;DHT22;20658;45.630;8.886;2024-02-14T09:47:39;11.00;74.60
34406;DHT22;20658;45.630;8.886;2024-02-14T09:50:14;11.10;74.70
34406;DHT22;20658;45.630;8.886;2024-02-14T09:52:48;11.20;72.60
34406;DHT22;20658;45.630;8.886;2024-02-14T09:55:23;11.40;73.00
34406;DHT22;20658;45.630;8.886;2024-02-14T09:57:58;11.50;72.90
34406;DHT22;20658;45.630;8.886;2024-02-14T10:00:35;11.70;74.50
34406;DHT22;20658;45.630;8.886;2024-02-14T10:03:09;11.70;72.80
34406;DHT22;20658;45.630;8.886;2024-02-14T10:05:44;11.80;72.80
34406;DHT22;20658;45.630;8.886;2024-02-14T10:08:18;11.80;72.00
34406;DHT22;20658;45.630;8.886;2024-02-14T10:10:52;11.90;72.10
34406;DHT22;20658;45.630;8.886;2024-02-14T10:13:28;12.00;71.70
34406;DHT22;20658;45.630;8.886;2024-02-14T10:16:05;12.20;72.50
34406;DHT22;20658;45.630;8.886;2024-02-14T10:18:40;12.30;70.60
34406;DHT22;20658;45.630;8.886;2024-02-14T10:21:16;12.40;70.80
34406;DHT22;20658;45.630;8.886;2024-02-14T10:23:51;12.40;70.00
34406;DHT22;20658;45.630;8.886;2024-02-14T10:26:25;12.60;70.20
34406;DHT22;20658;45.630;8.886;2024-02-14T10:28:58;12.60;69.50
34406;DHT22;20658;45.630;8.886;2024-02-14T10:31:32;12.80;69.20
34406;DHT22;20658;45.630;8.886;2024-02-14T10:34:06;12.80;68.60
34406;DHT22;20658;45.630;8.886;2024-02-14T10:36:42;13.00;70.40
34406;DHT22;20658;45.630;8.886;2024-02-14T10:39:17;13.00;68.30
34406;DHT22;20658;45.630;8.886;2024-02-14T10:41:52;13.10;69.30
34406;DHT22;20658;45.630;8.886;2024-02-14T10:44:25;13.10;68.50
34406;DHT22;20658;45.630;8.886;2024-02-14T10:47:00;13.20;68.30
34406;DHT22;20658;45.630;8.886;2024-02-14T10:49:36;13.30;68.70
34406;DHT22;20658;45.630;8.886;2024-02-14T10:52:13;13.30;68.20
34406;DHT22;20658;45.630;8.886;2024-02-14T10:54:54;13.20;67.40
34406;DHT22;20658;45.630;8.886;2024-02-14T10:57:30;13.30;67.10
34406;DHT22;20658;45.630;8.886;2024-02-14T11:00:08;13.40;68.20
34406;DHT22;20658;45.630;8.886;2024-02-14T11:02:42;13.50;68.10
34406;DHT22;20658;45.630;8.886;2024-02-14T11:05:16;13.60;67.10
34406;DHT22;20658;45.630;8.886;2024-02-14T11:07:55;13.60;67.50
34406;DHT22;20658;45.630;8.886;2024-02-14T11:10:28;13.70;68.00
34406;DHT22;20658;45.630;8.886;2024-02-14T11:13:02;13.90;68.00
34406;DHT22;20658;45.630;8.886;2024-02-14T11:15:35;14.00;67.10
34406;DHT22;20658;45.630;8.886;2024-02-14T11:18:09;13.80;66.30
34406;DHT22;20658;45.630;8.886;2024-02-14T11:20:42;13.90;67.80
34406;DHT22;20658;45.630;8.886;2024-02-14T11:23:22;14.00;68.40
34406;DHT22;20658;45.630;8.886;2024-02-14T11:25:59;14.10;66.70
34406;DHT22;20658;45.630;8.886;2024-02-14T11:28:37;14.00;66.10
34406;DHT22;20658;45.630;8.886;2024-02-14T11:31:16;14.20;66.70
34406;DHT22;20658;45.630;8.886;2024-02-14T11:33:50;14.30;66.70
34406;DHT22;20658;45.630;8.886;2024-02-14T11:36:23;14.40;67.70
34406;DHT22;20658;45.630;8.886;2024-02-14T11:38:58;14.50;67.20
34406;DHT22;20658;45.630;8.886;2024-02-14T11:41:33;14.50;67.10
34406;DHT22;20658;45.630;8.886;2024-02-14T11:44:06;14.70;66.50
34406;DHT22;20658;45.630;8.886;2024-02-14T11:46:40;14.70;66.10
34406;DHT22;20658;45.630;8.886;2024-02-14T11:49:14;14.70;66.10
34406;DHT22;20658;45.630;8.886;2024-02-14T11:51:48;14.70;66.00
34406;DHT22;20658;45.630;8.886;2024-02-14T11:54:24;14.70;65.90
34406;DHT22;20658;45.630;8.886;2024-02-14T11:56:57;14.70;65.70
34406;DHT22;20658;45.630;8.886;2024-02-14T11:59:31;14.80;64.80
34406;DHT22;20658;45.630;8.886;2024-02-14T12:02:05;14.90;65.30
34406;DHT22;20658;45.630;8.886;2024-02-14T12:04:38;15.00;64.70
34406;DHT22;20658;45.630;8.886;2024-02-14T12:07:12;15.10;64.80
34406;DHT22;20658;45.630;8.886;2024-02-14T12:09:47;15.10;64.90
34406;DHT22;20658;45.630;8.886;2024-02-14T12:12:22;15.20;65.80
34406;DHT22;20658;45.630;8.886;2024-02-14T12:14:56;14.90;64.60
34406;DHT22;20658;45.630;8.886;2024-02-14T12:17:30;14.80;66.10
34406;DHT22;20658;45.630;8.886;2024-02-14T12:20:11;14.90;65.40
34406;DHT22;20658;45.630;8.886;2024-02-14T12:22:50;14.80;63.50
34406;DHT22;20658;45.630;8.886;2024-02-14T12:25:25;14.90;65.20
34406;DHT22;20658;45.630;8.886;2024-02-14T12:27:59;14.90;63.90
34406;DHT22;20658;45.630;8.886;2024-02-14T12:30:43;14.90;65.40
34406;DHT22;20658;45.630;8.886;2024-02-14T12:33:18;15.00;65.00
34406;DHT22;20658;45.630;8.886;2024-02-14T12:35:53;15.10;64.20
34406;DHT22;20658;45.630;8.886;2024-02-14T12:38:28;15.00;64.40
34406;DHT22;20658;45.630;8.886;2024-02-14T12:41:03;15.00;63.10
34406;DHT22;20658;45.630;8.886;2024-02-14T12:43:37;15.00;63.70
34406;DHT22;20658;45.630;8.886;2024-02-14T12:46:10;15.00;64.60
34406;DHT22;20658;45.630;8.886;2024-02-14T12:48:44;15.10;64.60
34406;DHT22;20658;45.630;8.886;2024-02-14T12:51:17;15.10;64.80
34406;DHT22;20658;45.630;8.886;2024-02-14T12:53:51;15.10;63.50
34406;DHT22;20658;45.630;8.886;2024-02-14T12:56:26;15.20;63.40
34406;DHT22;20658;45.630;8.886;2024-02-14T12:58:59;15.20;64.60
34406;DHT22;20658;45.630;8.886;2024-02-14T13:01:34;15.20;63.90
34406;DHT22;20658;45.630;8.886;2024-02-14T13:04:07;15.20;64.50
34406;DHT22;20658;45.630;8.886;2024-02-14T13:06:41;15.30;63.20
34406;DHT22;20658;45.630;8.886;2024-02-14T13:09:15;15.30;63.00
34406;DHT22;20658;45.630;8.886;2024-02-14T13:11:49;15.20;62.20
34406;DHT22;20658;45.630;8.886;2024-02-14T13:14:24;15.30;63.40
34406;DHT22;20658;45.630;8.886;2024-02-14T13:16:58;15.20;62.20
34406;DHT22;20658;45.630;8.886;2024-02-14T13:19:32;15.30;62.80
34406;DHT22;20658;45.630;8.886;2024-02-14T13:22:05;15.30;63.10
34406;DHT22;20658;45.630;8.886;2024-02-14T13:24:39;15.40;62.80
34406;DHT22;20658;45.630;8.886;2024-02-14T13:27:14;15.50;62.90
34406;DHT22;20658;45.630;8.886;2024-02-14T13:29:48;15.50;63.20
34406;DHT22;20658;45.630;8.886;2024-02-14T13:32:21;15.40;61.20
34406;DHT22;20658;45.630;8.886;2024-02-14T13:34:55;15.30;60.20
34406;DHT22;20658;45.630;8.886;2024-02-14T13:37:29;15.40;61.50
34406;DHT22;20658;45.630;8.886;2024-02-14T13:40:04;15.40;60.80
34406;DHT22;20658;45.630;8.886;2024-02-14T13:42:43;15.30;60.10
34406;DHT22;20658;45.630;8.886;2024-02-14T13:45:17;15.20;61.70
34406;DHT22;20658;45.630;8.886;2024-02-14T13:47:51;15.40;60.80
34406;DHT22;20658;45.630;8.886;2024-02-14T13:50:21;15.20;60.40
34406;DHT22;20658;45.630;8.886;2024-02-14T13:52:55;15.40;59.70
34406;DHT22;20658;45.630;8.886;2024-02-14T13:55:29;15.30;58.20
34406;DHT22;20658;45.630;8.886;2024-02-14T13:58:04;15.30;59.40
34406;DHT22;20658;45.630;8.886;2024-02-14T14:00:37;15.40;60.80
34406;DHT22;20658;45.630;8.886;2024-02-14T14:03:11;15.40;60.90
34406;DHT22;20658;45.630;8.886;2024-02-14T14:05:44;15.40;61.00
34406;DHT22;20658;45.630;8.886;2024-02-14T14:08:17;15.20;61.40
34406;DHT22;20658;45.630;8.886;2024-02-14T14:10:51;15.10;60.40
34406;DHT22;20658;45.630;8.886;2024-02-14T14:13:26;14.90;59.30
34406;DHT22;20658;45.630;8.886;2024-02-14T14:16:00;15.00;59.90
34406;DHT22;20658;45.630;8.886;2024-02-14T14:18:35;15.00;59.60
34406;DHT22;20658;45.630;8.886;2024-02-14T14:21:09;15.10;60.00
34406;DHT22;20658;45.630;8.886;2024-02-14T14:23:42;15.20;60.10
34406;DHT22;20658;45.630;8.886;2024-02-14T14:26:11;15.20;60.00
34406;DHT22;20658;45.630;8.886;2024-02-14T14:28:46;15.10;59.80
34406;DHT22;20658;45.630;8.886;2024-02-14T14:31:20;15.20;59.60
34406;DHT22;20658;45.630;8.886;2024-02-14T14:33:54;15.10;59.10
34406;DHT22;20658;45.630;8.886;2024-02-14T14:36:28;15.20;58.50
34406;DHT22;20658;45.630;8.886;2024-02-14T14:39:02;15.10;58.90
34406;DHT22;20658;45.630;8.886;2024-02-14T14:41:35;15.00;59.40
34406;DHT22;20658;45.630;8.886;2024-02-14T14:44:06;15.00;59.00
34406;DHT22;20658;45.630;8.886;2024-02-14T14:46:41;14.90;59.10
34406;DHT22;20658;45.630;8.886;2024-02-14T14:49:14;14.80;59.70
34406;DHT22;20658;45.630;8.886;2024-02-14T14:51:48;14.90;59.70
34406;DHT22;20658;45.630;8.886;2024-02-14T14:54:22;15.00;59.40
34406;DHT22;20658;45.630;8.886;2024-02-14T14:56:55;15.00;60.30
34406;DHT22;20658;45.630;8.886;2024-02-14T14:59:30;14.90;60.20
34406;DHT22;20658;45.630;8.886;2024-02-14T15:02:04;15.00;60.90
34406;DHT22;20658;45.630;8.886;2024-02-14T15:04:38;15.00;61.60
34406;DHT22;20658;45.630;8.886;2024-02-14T15:07:12;15.10;61.90
34406;DHT22;20658;45.630;8.886;2024-02-14T15:09:45;15.00;60.90
34406;DHT22;20658;45.630;8.886;2024-02-14T15:12:19;14.80;59.80
34406;DHT22;20658;45.630;8.886;2024-02-14T15:14:59;14.80;60.30
34406;DHT22;20658;45.630;8.886;2024-02-14T15:17:32;14.80;61.60
34406;DHT22;20658;45.630;8.886;2024-02-14T15:20:07;14.70;61.90
34406;DHT22;20658;45.630;8.886;2024-02-14T15:22:41;14.70;62.50
34406;DHT22;20658;45.630;8.886;2024-02-14T15:25:15;14.70;62.60
34406;DHT22;20658;45.630;8.886;2024-02-14T15:27:48;14.70;62.50
34406;DHT22;20658;45.630;8.886;2024-02-14T15:30:28;14.70;62.70
34406;DHT22;20658;45.630;8.886;2024-02-14T15:33:19;14.60;63.10
34406;DHT22;20658;45.630;8.886;2024-02-14T15:35:57;14.50;62.00
34406;DHT22;20658;45.630;8.886;2024-02-14T15:38:31;14.50;61.80
34406;DHT22;20658;45.630;8.886;2024-02-14T15:41:05;14.40;60.40
34406;DHT22;20658;45.630;8.886;2024-02-14T15:43:40;14.40;59.90
34406;DHT22;20658;45.630;8.886;2024-02-14T15:46:17;14.20;59.70
34406;DHT22;20658;45.630;8.886;2024-02-14T15:48:46;14.00;59.20
34406;DHT22;20658;45.630;8.886;2024-02-14T15:51:14;13.90;60.10
34406;DHT22;20658;45.630;8.886;2024-02-14T15:53:47;13.80;61.30
34406;DHT22;20658;45.630;8.886;2024-02-14T15:56:21;13.70;62.10
34406;DHT22;20658;45.630;8.886;2024-02-14T15:58:54;13.80;62.80
34406;DHT22;20658;45.630;8.886;2024-02-14T16:01:29;13.80;63.80
34406;DHT22;20658;45.630;8.886;2024-02-14T16:04:03;13.80;64.50
34406;DHT22;20658;45.630;8.886;2024-02-14T16:06:37;13.70;65.10
34406;DHT22;20658;45.630;8.886;2024-02-14T16:09:11;13.70;65.40
34406;DHT22;20658;45.630;8.886;2024-02-14T16:11:45;13.70;65.70
34406;DHT22;20658;45.630;8.886;2024-02-14T16:14:18;13.70;66.40
34406;DHT22;20658;45.630;8.886;2024-02-14T16:16:53;13.70;66.60
34406;DHT22;20658;45.630;8.886;2024-02-14T16:19:27;13.60;66.70
34406;DHT22;20658;45.630;8.886;2024-02-14T16:22:00;13.50;67.10
34406;DHT22;20658;45.630;8.886;2024-02-14T16:24:35;13.50;67.00